sensor_id;sensor_type;location;lat;lon;timestamp;pressure;altitude;pressure_sealevel;temperature;humidity
11487;BME280;10510;47.942;9.442;2023-02-12T00:00:58;96360.47;;;-2.39;100.00
11487;BME280;10510;47.942;9.442;2023-02-12T00:02:58;96360.81;;;-2.47;100.00
11487;BME280;10510;47.942;9.442;2023-02-12T00:04:59;96356.00;;;-2.55;100.00
11487;BME280;10510;47.942;9.442;2023-02-12T00:06:59;96357.97;;;-2.61;100.00
11487;BME280;10510;47.942;9.442;2023-02-12T00:09:00;96359.88;;;-2.66;100.00
11487;BME280;10510;47.942;9.442;2023-02-12T00:11:13;96360.94;;;-2.72;100.00
11487;BME280;10510;47.942;9.442;2023-02-12T00:13:13;96369.66;;;-2.76;100.00
11487;BME280;10510;47.942;9.442;2023-02-12T00:15:14;96359.53;;;-2.79;100.00
11487;BME280;10510;47.942;9.442;2023-02-12T00:17:14;96369.00;;;-2.81;100.00
11487;BME280;10510;47.942;9.442;2023-02-12T00:19:14;96368.22;;;-2.83;100.00
11487;BME280;10510;47.942;9.442;2023-02-12T00:21:15;96365.78;;;-2.86;100.00
11487;BME280;10510;47.942;9.442;2023-02-12T00:23:16;96362.44;;;-2.88;100.00
11487;BME280;10510;47.942;9.442;2023-02-12T00:25:16;96363.47;;;-2.92;100.00
11487;BME280;10510;47.942;9.442;2023-02-12T00:27:17;96358.53;;;-2.97;100.00
11487;BME280;10510;47.942;9.442;2023-02-12T00:29:18;96361.13;;;-2.99;100.00
11487;BME280;10510;47.942;9.442;2023-02-12T00:31:21;96361.13;;;-2.99;100.00
11487;BME280;10510;47.942;9.442;2023-02-12T00:33:22;96362.91;;;-3.01;100.00
11487;BME280;10510;47.942;9.442;2023-02-12T00:35:22;96356.06;;;-3.00;100.00
11487;BME280;10510;47.942;9.442;2023-02-12T00:37:22;96359.41;;;-2.98;100.00
11487;BME280;10510;47.942;9.442;2023-02-12T00:39:22;96356.81;;;-2.97;100.00
11487;BME280;10510;47.942;9.442;2023-02-12T00:41:24;96361.84;;;-2.95;100.00
11487;BME280;10510;47.942;9.442;2023-02-12T00:43:24;96363.56;;;-2.95;100.00
11487;BME280;10510;47.942;9.442;2023-02-12T00:45:24;96359.38;;;-2.97;100.00
11487;BME280;10510;47.942;9.442;2023-02-12T00:47:25;96365.34;;;-2.98;100.00
11487;BME280;10510;47.942;9.442;2023-02-12T00:49:25;96367.16;;;-3.00;100.00
11487;BME280;10510;47.942;9.442;2023-02-12T00:51:25;96364.66;;;-3.01;100.00
11487;BME280;10510;47.942;9.442;2023-02-12T00:53:26;96362.88;;;-2.99;100.00
11487;BME280;10510;47.942;9.442;2023-02-12T00:55:26;96356.06;;;-3.00;100.00
11487;BME280;10510;47.942;9.442;2023-02-12T00:57:26;96361.97;;;-2.98;100.00
11487;BME280;10510;47.942;9.442;2023-02-12T00:59:27;96363.66;;;-2.97;100.00
11487;BME280;10510;47.942;9.442;2023-02-12T01:01:27;96369.53;;;-2.95;100.00
11487;BME280;10510;47.942;9.442;2023-02-12T01:03:28;96382.28;;;-2.93;100.00
11487;BME280;10510;47.942;9.442;2023-02-12T01:05:28;96376.25;;;-2.92;100.00
11487;BME280;10510;47.942;9.442;2023-02-12T01:07:29;96383.75;;;-2.88;100.00
11487;BME280;10510;47.942;9.442;2023-02-12T01:09:30;96376.00;;;-2.86;100.00
11487;BME280;10510;47.942;9.442;2023-02-12T01:11:30;96377.75;;;-2.87;100.00
11487;BME280;10510;47.942;9.442;2023-02-12T01:13:31;96374.28;;;-2.86;100.00
11487;BME280;10510;47.942;9.442;2023-02-12T01:15:32;96387.06;;;-2.86;100.00
11487;BME280;10510;47.942;9.442;2023-02-12T01:17:32;96381.13;;;-2.86;100.00
11487;BME280;10510;47.942;9.442;2023-02-12T01:19:33;96384.63;;;-2.89;100.00
11487;BME280;10510;47.942;9.442;2023-02-12T01:21:33;96382.97;;;-2.90;100.00
11487;BME280;10510;47.942;9.442;2023-02-12T01:23:34;96381.31;;;-2.91;100.00
11487;BME280;10510;47.942;9.442;2023-02-12T01:25:34;96389.94;;;-2.93;100.00
11487;BME280;10510;47.942;9.442;2023-02-12T01:27:36;96386.59;;;-2.95;100.00
11487;BME280;10510;47.942;9.442;2023-02-12T01:29:37;96378.16;;;-2.98;100.00
11487;BME280;10510;47.942;9.442;2023-02-12T01:31:38;96379.09;;;-3.00;100.00
11487;BME280;10510;47.942;9.442;2023-02-12T01:33:39;96380.81;;;-3.01;100.00
11487;BME280;10510;47.942;9.442;2023-02-12T01:35:40;96376.66;;;-3.03;100.00
11487;BME280;10510;47.942;9.442;2023-02-12T01:37:40;96376.78;;;-3.06;100.00
11487;BME280;10510;47.942;9.442;2023-02-12T01:39:41;96391.28;;;-3.07;100.00
11487;BME280;10510;47.942;9.442;2023-02-12T01:41:43;96382.00;;;-3.09;100.00
11487;BME280;10510;47.942;9.442;2023-02-12T01:43:44;96370.94;;;-3.10;100.00
11487;BME280;10510;47.942;9.442;2023-02-12T01:45:49;96358.16;;;-3.10;100.00
11487;BME280;10510;47.942;9.442;2023-02-12T01:47:52;96356.50;;;-3.11;100.00
11487;BME280;10510;47.942;9.442;2023-02-12T01:49:52;96360.72;;;-3.10;100.00
11487;BME280;10510;47.942;9.442;2023-02-12T01:51:57;96370.94;;;-3.10;100.00
11487;BME280;10510;47.942;9.442;2023-02-12T01:54:01;96365.03;;;-3.12;100.00
11487;BME280;10510;47.942;9.442;2023-02-12T01:56:04;96370.28;;;-3.15;100.00
11487;BME280;10510;47.942;9.442;2023-02-12T01:58:06;96367.78;;;-3.16;100.00
11487;BME280;10510;47.942;9.442;2023-02-12T02:00:10;96370.34;;;-3.16;100.00
11487;BME280;10510;47.942;9.442;2023-02-12T02:02:11;96357.59;;;-3.18;100.00
11487;BME280;10510;47.942;9.442;2023-02-12T02:04:14;96359.34;;;-3.18;100.00
11487;BME280;10510;47.942;9.442;2023-02-12T02:06:19;96356.78;;;-3.18;100.00
11487;BME280;10510;47.942;9.442;2023-02-12T02:08:22;96359.41;;;-3.20;100.00
11487;BME280;10510;47.942;9.442;2023-02-12T02:10:23;96367.19;;;-3.23;100.00
11487;BME280;10510;47.942;9.442;2023-02-12T02:12:24;96363.25;;;-3.32;100.00
11487;BME280;10510;47.942;9.442;2023-02-12T02:14:46;96363.41;;;-3.36;100.00
11487;BME280;10510;47.942;9.442;2023-02-12T02:16:56;96358.41;;;-3.39;100.00
11487;BME280;10510;47.942;9.442;2023-02-12T02:19:49;96356.81;;;-3.42;100.00
11487;BME280;10510;47.942;9.442;2023-02-12T02:21:55;96358.59;;;-3.44;100.00
11487;BME280;10510;47.942;9.442;2023-02-12T02:24:22;96361.16;;;-3.44;100.00
11487;BME280;10510;47.942;9.442;2023-02-12T02:26:42;96356.03;;;-3.44;100.00
11487;BME280;10510;47.942;9.442;2023-02-12T02:29:13;96356.91;;;-3.45;100.00
11487;BME280;10510;47.942;9.442;2023-02-12T02:31:25;96357.81;;;-3.46;100.00
11487;BME280;10510;47.942;9.442;2023-02-12T02:35:54;96349.34;;;-3.48;100.00
11487;BME280;10510;47.942;9.442;2023-02-12T02:38:29;96356.19;;;-3.49;100.00
11487;BME280;10510;47.942;9.442;2023-02-12T02:40:32;96355.41;;;-3.51;100.00
11487;BME280;10510;47.942;9.442;2023-02-12T02:42:36;96356.31;;;-3.52;100.00
11487;BME280;10510;47.942;9.442;2023-02-12T02:45:29;96347.84;;;-3.54;100.00
11487;BME280;10510;47.942;9.442;2023-02-12T02:47:06;96352.22;;;-3.56;100.00
11487;BME280;10510;47.942;9.442;2023-02-12T02:49:14;96349.69;;;-3.57;100.00
11487;BME280;10510;47.942;9.442;2023-02-12T02:51:18;96342.94;;;-3.58;100.00
11487;BME280;10510;47.942;9.442;2023-02-12T02:53:26;96341.25;;;-3.59;100.00
11487;BME280;10510;47.942;9.442;2023-02-12T02:55:36;96349.84;;;-3.62;100.00
11487;BME280;10510;47.942;9.442;2023-02-12T02:57:44;96349.09;;;-3.64;100.00
11487;BME280;10510;47.942;9.442;2023-02-12T02:59:49;96342.31;;;-3.65;100.00
11487;BME280;10510;47.942;9.442;2023-02-12T03:04:35;96343.31;;;-3.69;100.00
11487;BME280;10510;47.942;9.442;2023-02-12T03:07:05;96336.59;;;-3.72;100.00
11487;BME280;10510;47.942;9.442;2023-02-12T03:09:18;96336.66;;;-3.73;100.00
11487;BME280;10510;47.942;9.442;2023-02-12T03:11:26;96331.59;;;-3.75;100.00
11487;BME280;10510;47.942;9.442;2023-02-12T03:13:40;96330.75;;;-3.75;100.00
11487;BME280;10510;47.942;9.442;2023-02-12T03:15:54;96330.75;;;-3.75;100.00
11487;BME280;10510;47.942;9.442;2023-02-12T03:17:58;96336.69;;;-3.75;100.00
11487;BME280;10510;47.942;9.442;2023-02-12T03:20:05;96340.91;;;-3.74;100.00
11487;BME280;10510;47.942;9.442;2023-02-12T03:22:09;96344.25;;;-3.72;100.00
11487;BME280;10510;47.942;9.442;2023-02-12T03:24:26;96337.38;;;-3.70;100.00
11487;BME280;10510;47.942;9.442;2023-02-12T03:26:42;96332.06;;;-3.65;100.00
11487;BME280;10510;47.942;9.442;2023-02-12T03:28:45;96347.25;;;-3.60;100.00
11487;BME280;10510;47.942;9.442;2023-02-12T03:33:28;96345.19;;;-3.51;100.00
11487;BME280;10510;47.942;9.442;2023-02-12T03:35:39;96344.19;;;-3.47;100.00
11487;BME280;10510;47.942;9.442;2023-02-12T03:38:02;96349.97;;;-3.42;100.00
11487;BME280;10510;47.942;9.442;2023-02-12T03:42:30;96357.25;;;-3.31;100.00
11487;BME280;10510;47.942;9.442;2023-02-12T03:44:56;96362.13;;;-3.25;100.00
11487;BME280;10510;47.942;9.442;2023-02-12T03:47:03;96367.84;;;-3.18;100.00
11487;BME280;10510;47.942;9.442;2023-02-12T03:49:15;96375.22;;;-3.10;100.00
11487;BME280;10510;47.942;9.442;2023-02-12T03:51:24;96369.06;;;-3.05;100.00
11487;BME280;10510;47.942;9.442;2023-02-12T03:53:26;96364.59;;;-3.00;100.00
11487;BME280;10510;47.942;9.442;2023-02-12T03:55:29;96357.50;;;-2.93;100.00
11487;BME280;10510;47.942;9.442;2023-02-12T03:57:35;96363.22;;;-2.86;100.00
11487;BME280;10510;47.942;9.442;2023-02-12T03:59:38;96361.31;;;-2.81;100.00
11487;BME280;10510;47.942;9.442;2023-02-12T04:01:38;96362.81;;;-2.76;100.00
11487;BME280;10510;47.942;9.442;2023-02-12T04:03:39;96357.50;;;-2.71;100.00
11487;BME280;10510;47.942;9.442;2023-02-12T04:05:40;96361.72;;;-2.70;100.00
11487;BME280;10510;47.942;9.442;2023-02-12T04:07:40;96363.34;;;-2.67;100.00
11487;BME280;10510;47.942;9.442;2023-02-12T04:09:40;96368.34;;;-2.64;100.00
11487;BME280;10510;47.942;9.442;2023-02-12T04:14:11;96367.97;;;-2.55;100.00
11487;BME280;10510;47.942;9.442;2023-02-12T04:16:24;96360.09;;;-2.51;100.00
11487;BME280;10510;47.942;9.442;2023-02-12T04:18:40;96366.75;;;-2.46;100.00
11487;BME280;10510;47.942;9.442;2023-02-12T04:20:56;96372.59;;;-2.43;100.00
11487;BME280;10510;47.942;9.442;2023-02-12T04:25:42;96367.09;;;-2.34;100.00
11487;BME280;10510;47.942;9.442;2023-02-12T04:30:35;96372.59;;;-2.22;100.00
11487;BME280;10510;47.942;9.442;2023-02-12T04:32:44;96378.44;;;-2.19;100.00
11487;BME280;10510;47.942;9.442;2023-02-12T04:35:00;96379.09;;;-2.14;100.00
11487;BME280;10510;47.942;9.442;2023-02-12T04:37:14;96374.66;;;-2.10;100.00
11487;BME280;10510;47.942;9.442;2023-02-12T04:39:22;96368.50;;;-2.06;100.00
11487;BME280;10510;47.942;9.442;2023-02-12T04:41:25;96385.47;;;-2.03;100.00
11487;BME280;10510;47.942;9.442;2023-02-12T04:43:31;96378.56;;;-2.01;100.00
11487;BME280;10510;47.942;9.442;2023-02-12T04:45:34;96374.25;;;-2.01;100.00
11487;BME280;10510;47.942;9.442;2023-02-12T04:47:35;96383.56;;;-1.98;100.00
11487;BME280;10510;47.942;9.442;2023-02-12T04:49:35;96392.84;;;-1.96;100.00
11487;BME280;10510;47.942;9.442;2023-02-12T04:51:36;96389.38;;;-1.95;100.00
11487;BME280;10510;47.942;9.442;2023-02-12T04:53:36;96384.91;;;-1.90;100.00
11487;BME280;10510;47.942;9.442;2023-02-12T04:55:37;96383.03;;;-1.86;100.00
11487;BME280;10510;47.942;9.442;2023-02-12T04:57:37;96383.69;;;-1.81;100.00
11487;BME280;10510;47.942;9.442;2023-02-12T04:59:38;96386.09;;;-1.78;100.00
11487;BME280;10510;47.942;9.442;2023-02-12T05:01:39;96384.25;;;-1.74;100.00
11487;BME280;10510;47.942;9.442;2023-02-12T05:03:39;96384.06;;;-1.70;100.00
11487;BME280;10510;47.942;9.442;2023-02-12T05:05:40;96383.91;;;-1.67;100.00
11487;BME280;10510;47.942;9.442;2023-02-12T05:07:40;96390.56;;;-1.63;100.00
11487;BME280;10510;47.942;9.442;2023-02-12T05:09:40;96391.25;;;-1.59;100.00
11487;BME280;10510;47.942;9.442;2023-02-12T05:11:41;96381.72;;;-1.55;100.00
11487;BME280;10510;47.942;9.442;2023-02-12T05:13:41;96380.63;;;-1.50;100.00
11487;BME280;10510;47.942;9.442;2023-02-12T05:15:41;96372.78;;;-1.47;100.00
11487;BME280;10510;47.942;9.442;2023-02-12T05:17:41;96371.75;;;-1.43;100.00
11487;BME280;10510;47.942;9.442;2023-02-12T05:19:42;96369.00;;;-1.38;100.00
11487;BME280;10510;47.942;9.442;2023-02-12T05:21:42;96372.31;;;-1.36;100.00
11487;BME280;10510;47.942;9.442;2023-02-12T05:23:42;96378.97;;;-1.32;100.00
11487;BME280;10510;47.942;9.442;2023-02-12T05:25:43;96377.94;;;-1.28;100.00
11487;BME280;10510;47.942;9.442;2023-02-12T05:27:43;96372.66;;;-1.25;100.00
11487;BME280;10510;47.942;9.442;2023-02-12T05:29:43;96380.22;;;-1.22;100.00
11487;BME280;10510;47.942;9.442;2023-02-12T05:31:43;96373.28;;;-1.20;100.00
11487;BME280;10510;47.942;9.442;2023-02-12T05:33:45;96378.19;;;-1.15;100.00
11487;BME280;10510;47.942;9.442;2023-02-12T05:35:46;96372.03;;;-1.11;100.00
11487;BME280;10510;47.942;9.442;2023-02-12T05:37:46;96376.25;;;-1.10;100.00
11487;BME280;10510;47.942;9.442;2023-02-12T05:39:48;96370.22;;;-1.09;100.00
11487;BME280;10510;47.942;9.442;2023-02-12T05:41:49;96375.28;;;-1.07;100.00
11487;BME280;10510;47.942;9.442;2023-02-12T05:43:50;96365.84;;;-1.07;100.00
11487;BME280;10510;47.942;9.442;2023-02-12T05:45:50;96376.06;;;-1.05;100.00
11487;BME280;10510;47.942;9.442;2023-02-12T05:47:50;96369.97;;;-1.03;100.00
11487;BME280;10510;47.942;9.442;2023-02-12T05:49:50;96365.56;;;-1.01;100.00
11487;BME280;10510;47.942;9.442;2023-02-12T05:51:51;96365.41;;;-0.98;100.00
11487;BME280;10510;47.942;9.442;2023-02-12T05:53:55;96357.66;;;-0.96;100.00
11487;BME280;10510;47.942;9.442;2023-02-12T05:58:10;96356.59;;;-0.92;100.00
11487;BME280;10510;47.942;9.442;2023-02-12T06:00:11;96366.69;;;-0.87;100.00
11487;BME280;10510;47.942;9.442;2023-02-12T06:02:11;96363.13;;;-0.85;100.00
11487;BME280;10510;47.942;9.442;2023-02-12T06:04:15;96362.16;;;-0.82;100.00
11487;BME280;10510;47.942;9.442;2023-02-12T06:06:16;96367.16;;;-0.79;100.00
11487;BME280;10510;47.942;9.442;2023-02-12T06:08:16;96368.66;;;-0.75;100.00
11487;BME280;10510;47.942;9.442;2023-02-12T06:10:17;96364.22;;;-0.72;100.00
11487;BME280;10510;47.942;9.442;2023-02-12T06:12:17;96358.94;;;-0.69;100.00
11487;BME280;10510;47.942;9.442;2023-02-12T06:14:19;96358.78;;;-0.65;100.00
11487;BME280;10510;47.942;9.442;2023-02-12T06:16:23;96364.47;;;-0.59;100.00
11487;BME280;10510;47.942;9.442;2023-02-12T06:18:24;96361.75;;;-0.56;100.00
11487;BME280;10510;47.942;9.442;2023-02-12T06:20:24;96357.34;;;-0.54;100.00
11487;BME280;10510;47.942;9.442;2023-02-12T06:22:26;96356.38;;;-0.51;100.00
11487;BME280;10510;47.942;9.442;2023-02-12T06:24:26;96357.91;;;-0.47;100.00
11487;BME280;10510;47.942;9.442;2023-02-12T06:26:27;96356.91;;;-0.44;100.00
11487;BME280;10510;47.942;9.442;2023-02-12T06:28:27;96361.91;;;-0.41;100.00
11487;BME280;10510;47.942;9.442;2023-02-12T06:30:27;96359.28;;;-0.40;100.00
11487;BME280;10510;47.942;9.442;2023-02-12T06:32:28;96367.75;;;-0.38;100.00
11487;BME280;10510;47.942;9.442;2023-02-12T06:34:28;96364.25;;;-0.37;100.00
11487;BME280;10510;47.942;9.442;2023-02-12T06:36:28;96367.66;;;-0.36;100.00
11487;BME280;10510;47.942;9.442;2023-02-12T06:38:29;96374.38;;;-0.34;100.00
11487;BME280;10510;47.942;9.442;2023-02-12T06:40:29;96375.16;;;-0.32;100.00
11487;BME280;10510;47.942;9.442;2023-02-12T06:42:30;96374.19;;;-0.29;100.00
11487;BME280;10510;47.942;9.442;2023-02-12T06:44:30;96370.59;;;-0.27;100.00
11487;BME280;10510;47.942;9.442;2023-02-12T06:46:30;96375.63;;;-0.24;100.00
11487;BME280;10510;47.942;9.442;2023-02-12T06:48:31;96377.19;;;-0.21;100.00
11487;BME280;10510;47.942;9.442;2023-02-12T06:50:32;96381.34;;;-0.18;100.00
11487;BME280;10510;47.942;9.442;2023-02-12T06:52:32;96389.81;;;-0.16;100.00
11487;BME280;10510;47.942;9.442;2023-02-12T06:54:32;96391.41;;;-0.14;100.00
11487;BME280;10510;47.942;9.442;2023-02-12T06:56:33;96383.44;;;-0.09;100.00
11487;BME280;10510;47.942;9.442;2023-02-12T06:58:33;96393.69;;;-0.08;100.00
11487;BME280;10510;47.942;9.442;2023-02-12T07:00:34;96393.44;;;-0.03;100.00
11487;BME280;10510;47.942;9.442;2023-02-12T07:02:34;96398.44;;;0.00;100.00
11487;BME280;10510;47.942;9.442;2023-02-12T07:04:36;96402.28;;;0.09;100.00
11487;BME280;10510;47.942;9.442;2023-02-12T07:06:37;96400.97;;;0.17;100.00
11487;BME280;10510;47.942;9.442;2023-02-12T07:08:38;96400.53;;;0.27;100.00
11487;BME280;10510;47.942;9.442;2023-02-12T07:10:38;96401.88;;;0.34;100.00
11487;BME280;10510;47.942;9.442;2023-02-12T07:12:38;96400.50;;;0.44;100.00
11487;BME280;10510;47.942;9.442;2023-02-12T07:14:39;96401.69;;;0.54;100.00
11487;BME280;10510;47.942;9.442;2023-02-12T07:16:39;96401.16;;;0.65;100.00
11487;BME280;10510;47.942;9.442;2023-02-12T07:18:40;96404.13;;;0.73;100.00
11487;BME280;10510;47.942;9.442;2023-02-12T07:20:40;96402.00;;;0.81;100.00
11487;BME280;10510;47.942;9.442;2023-02-12T07:22:41;96405.81;;;0.90;100.00
11487;BME280;10510;47.942;9.442;2023-02-12T07:24:41;96404.66;;;0.96;100.00
11487;BME280;10510;47.942;9.442;2023-02-12T07:26:43;96407.75;;;1.02;100.00
11487;BME280;10510;47.942;9.442;2023-02-12T07:28:43;96408.28;;;1.09;100.00
11487;BME280;10510;47.942;9.442;2023-02-12T07:30:43;96411.41;;;1.14;100.00
11487;BME280;10510;47.942;9.442;2023-02-12T07:32:44;96406.84;;;1.19;100.00
11487;BME280;10510;47.942;9.442;2023-02-12T07:34:44;96399.72;;;1.24;100.00
11487;BME280;10510;47.942;9.442;2023-02-12T07:36:45;96402.00;;;1.29;100.00
11487;BME280;10510;47.942;9.442;2023-02-12T07:38:46;96400.84;;;1.34;100.00
11487;BME280;10510;47.942;9.442;2023-02-12T07:40:47;96400.69;;;1.38;100.00
11487;BME280;10510;47.942;9.442;2023-02-12T07:42:47;96397.88;;;1.42;100.00
11487;BME280;10510;47.942;9.442;2023-02-12T07:44:54;96399.34;;;1.46;100.00
11487;BME280;10510;47.942;9.442;2023-02-12T07:46:54;96399.19;;;1.49;100.00
11487;BME280;10510;47.942;9.442;2023-02-12T07:48:56;96395.53;;;1.53;100.00
11487;BME280;10510;47.942;9.442;2023-02-12T07:51:02;96397.84;;;1.58;100.00
11487;BME280;10510;47.942;9.442;2023-02-12T07:53:02;96396.00;;;1.60;100.00
11487;BME280;10510;47.942;9.442;2023-02-12T07:55:02;96391.50;;;1.64;100.00
11487;BME280;10510;47.942;9.442;2023-02-12T07:57:03;96393.00;;;1.68;100.00
11487;BME280;10510;47.942;9.442;2023-02-12T07:59:10;96384.19;;;1.72;100.00
11487;BME280;10510;47.942;9.442;2023-02-12T08:01:25;96383.00;;;1.77;100.00
11487;BME280;10510;47.942;9.442;2023-02-12T08:03:27;96388.00;;;1.80;100.00
11487;BME280;10510;47.942;9.442;2023-02-12T08:05:28;96389.47;;;1.85;100.00
11487;BME280;10510;47.942;9.442;2023-02-12T08:07:28;96393.63;;;1.87;100.00
11487;BME280;10510;47.942;9.442;2023-02-12T08:09:29;96388.28;;;1.90;100.00
11487;BME280;10510;47.942;9.442;2023-02-12T08:11:32;96385.63;;;1.92;100.00
11487;BME280;10510;47.942;9.442;2023-02-12T08:13:34;96395.78;;;1.95;100.00
11487;BME280;10510;47.942;9.442;2023-02-12T08:15:34;96390.50;;;1.96;100.00
11487;BME280;10510;47.942;9.442;2023-02-12T08:17:35;96391.25;;;1.98;100.00
11487;BME280;10510;47.942;9.442;2023-02-12T08:19:35;96398.75;;;2.03;100.00
11487;BME280;10510;47.942;9.442;2023-02-12T08:21:36;96393.47;;;2.04;100.00
11487;BME280;10510;47.942;9.442;2023-02-12T08:23:36;96395.22;;;2.04;100.00
11487;BME280;10510;47.942;9.442;2023-02-12T08:25:37;96392.47;;;2.07;100.00
11487;BME280;10510;47.942;9.442;2023-02-12T08:27:40;96388.06;;;2.09;100.00
11487;BME280;10510;47.942;9.442;2023-02-12T08:29:40;96390.47;;;2.12;100.00
11487;BME280;10510;47.942;9.442;2023-02-12T08:31:43;96387.88;;;2.12;100.00
11487;BME280;10510;47.942;9.442;2023-02-12T08:33:44;96388.78;;;2.11;100.00
11487;BME280;10510;47.942;9.442;2023-02-12T08:35:44;96387.13;;;2.10;100.00
11487;BME280;10510;47.942;9.442;2023-02-12T08:37:45;96390.47;;;2.12;100.00
11487;BME280;10510;47.942;9.442;2023-02-12T08:39:45;96388.53;;;2.16;100.00
11487;BME280;10510;47.942;9.442;2023-02-12T08:41:46;96391.00;;;2.17;100.00
11487;BME280;10510;47.942;9.442;2023-02-12T08:43:47;96384.94;;;2.18;100.00
11487;BME280;10510;47.942;9.442;2023-02-12T08:45:48;96388.25;;;2.20;100.00
11487;BME280;10510;47.942;9.442;2023-02-12T08:47:48;96394.09;;;2.24;100.00
11487;BME280;10510;47.942;9.442;2023-02-12T08:49:48;96386.16;;;2.27;100.00
11487;BME280;10510;47.942;9.442;2023-02-12T08:51:52;96392.03;;;2.29;100.00
11487;BME280;10510;47.942;9.442;2023-02-12T08:53:55;96383.41;;;2.30;100.00
11487;BME280;10510;47.942;9.442;2023-02-12T08:55:56;96383.03;;;2.36;100.00
11487;BME280;10510;47.942;9.442;2023-02-12T08:57:56;96385.25;;;2.42;100.00
11487;BME280;10510;47.942;9.442;2023-02-12T08:59:57;96384.13;;;2.46;100.00
11487;BME280;10510;47.942;9.442;2023-02-12T09:01:57;96387.22;;;2.53;100.00
11487;BME280;10510;47.942;9.442;2023-02-12T09:03:58;96386.84;;;2.59;100.00
11487;BME280;10510;47.942;9.442;2023-02-12T09:06:02;96381.31;;;2.65;100.00
11487;BME280;10510;47.942;9.442;2023-02-12T09:08:03;96375.03;;;2.69;100.00
11487;BME280;10510;47.942;9.442;2023-02-12T09:10:03;96378.16;;;2.75;100.00
11487;BME280;10510;47.942;9.442;2023-02-12T09:12:04;96376.31;;;2.77;100.00
11487;BME280;10510;47.942;9.442;2023-02-12T09:14:07;96379.34;;;2.83;100.00
11487;BME280;10510;47.942;9.442;2023-02-12T09:16:10;96385.91;;;2.89;100.00
11487;BME280;10510;47.942;9.442;2023-02-12T09:18:12;96382.13;;;2.94;100.00
11487;BME280;10510;47.942;9.442;2023-02-12T09:20:12;96369.84;;;2.98;100.00
11487;BME280;10510;47.942;9.442;2023-02-12T09:22:13;96373.06;;;3.02;100.00
11487;BME280;10510;47.942;9.442;2023-02-12T09:24:13;96368.53;;;3.05;100.00
11487;BME280;10510;47.942;9.442;2023-02-12T09:26:17;96375.19;;;3.09;100.00
11487;BME280;10510;47.942;9.442;2023-02-12T09:28:19;96375.38;;;3.06;100.00
11487;BME280;10510;47.942;9.442;2023-02-12T09:30:20;96374.50;;;3.06;100.00
11487;BME280;10510;47.942;9.442;2023-02-12T09:32:20;96367.50;;;3.08;100.00
11487;BME280;10510;47.942;9.442;2023-02-12T09:34:20;96371.56;;;3.12;100.00
11487;BME280;10510;47.942;9.442;2023-02-12T09:36:21;96372.22;;;3.15;100.00
11487;BME280;10510;47.942;9.442;2023-02-12T09:38:21;96364.25;;;3.18;100.00
11487;BME280;10510;47.942;9.442;2023-02-12T09:40:38;96365.63;;;3.24;100.00
11487;BME280;10510;47.942;9.442;2023-02-12T09:43:00;96367.00;;;3.30;100.00
11487;BME280;10510;47.942;9.442;2023-02-12T09:45:08;96361.84;;;3.30;100.00
11487;BME280;10510;47.942;9.442;2023-02-12T09:47:16;96370.50;;;3.29;100.00
11487;BME280;10510;47.942;9.442;2023-02-12T09:51:43;96370.50;;;3.29;100.00
11487;BME280;10510;47.942;9.442;2023-02-12T09:53:46;96372.59;;;3.36;100.00
11487;BME280;10510;47.942;9.442;2023-02-12T09:55:48;96366.03;;;3.45;100.00
11487;BME280;10510;47.942;9.442;2023-02-12T09:57:48;96366.47;;;3.52;100.00
11487;BME280;10510;47.942;9.442;2023-02-12T09:59:53;96359.03;;;3.60;100.00
11487;BME280;10510;47.942;9.442;2023-02-12T10:01:57;96354.50;;;3.63;100.00
11487;BME280;10510;47.942;9.442;2023-02-12T10:03:57;96358.38;;;3.71;100.00
11487;BME280;10510;47.942;9.442;2023-02-12T10:06:08;96362.78;;;3.69;100.00
11487;BME280;10510;47.942;9.442;2023-02-12T10:12:52;96362.47;;;4.00;100.00
11487;BME280;10510;47.942;9.442;2023-02-12T10:15:09;96353.75;;;4.14;100.00
11487;BME280;10510;47.942;9.442;2023-02-12T10:19:32;96356.28;;;4.41;100.00
11487;BME280;10510;47.942;9.442;2023-02-12T10:21:44;96353.16;;;4.49;100.00
11487;BME280;10510;47.942;9.442;2023-02-12T10:24:22;96346.22;;;4.62;100.00
11487;BME280;10510;47.942;9.442;2023-02-12T10:26:32;96348.75;;;4.88;100.00
11487;BME280;10510;47.942;9.442;2023-02-12T10:28:38;96345.00;;;5.05;100.00
11487;BME280;10510;47.942;9.442;2023-02-12T10:30:44;96345.41;;;5.35;100.00
11487;BME280;10510;47.942;9.442;2023-02-12T10:32:54;96346.63;;;5.66;100.00
11487;BME280;10510;47.942;9.442;2023-02-12T10:34:58;96353.72;;;5.76;100.00
11487;BME280;10510;47.942;9.442;2023-02-12T10:37:23;96346.13;;;5.85;100.00
11487;BME280;10510;47.942;9.442;2023-02-12T10:39:28;96354.38;;;5.90;100.00
11487;BME280;10510;47.942;9.442;2023-02-12T10:41:31;96353.78;;;6.22;100.00
11487;BME280;10510;47.942;9.442;2023-02-12T10:43:34;96347.09;;;6.65;100.00
11487;BME280;10510;47.942;9.442;2023-02-12T10:45:37;96344.63;;;6.97;100.00
11487;BME280;10510;47.942;9.442;2023-02-12T10:47:41;96339.97;;;7.23;100.00
11487;BME280;10510;47.942;9.442;2023-02-12T10:49:42;96343.19;;;7.26;100.00
11487;BME280;10510;47.942;9.442;2023-02-12T10:52:04;96329.63;;;7.44;100.00
11487;BME280;10510;47.942;9.442;2023-02-12T10:56:40;96318.75;;;8.03;100.00
11487;BME280;10510;47.942;9.442;2023-02-12T10:58:50;96324.56;;;8.37;100.00
11487;BME280;10510;47.942;9.442;2023-02-12T11:00:58;96321.88;;;8.70;100.00
11487;BME280;10510;47.942;9.442;2023-02-12T11:05:24;96318.00;;;9.74;100.00
11487;BME280;10510;47.942;9.442;2023-02-12T11:07:25;96312.34;;;10.08;100.00
11487;BME280;10510;47.942;9.442;2023-02-12T11:09:29;96314.09;;;10.46;100.00
11487;BME280;10510;47.942;9.442;2023-02-12T11:11:30;96310.69;;;10.73;100.00
11487;BME280;10510;47.942;9.442;2023-02-12T11:13:38;96311.91;;;10.79;100.00
11487;BME280;10510;47.942;9.442;2023-02-12T11:15:48;96302.59;;;11.04;100.00
11487;BME280;10510;47.942;9.442;2023-02-12T11:18:02;96295.97;;;11.27;100.00
11487;BME280;10510;47.942;9.442;2023-02-12T11:22:16;96297.13;;;11.78;100.00
11487;BME280;10510;47.942;9.442;2023-02-12T11:24:31;96288.22;;;12.07;100.00
11487;BME280;10510;47.942;9.442;2023-02-12T11:26:32;96287.16;;;12.18;100.00